createdAt,value
2022-11-07T00:00:21.631Z,94204.38
2022-11-07T00:02:48.385Z,94209.06
2022-11-07T00:05:15.147Z,94196.41
2022-11-07T00:07:41.861Z,94205.34
2022-11-07T00:10:08.813Z,94202.88
2022-11-07T00:12:36.651Z,94209.06
2022-11-07T00:15:05.213Z,94202.44
2022-11-07T00:17:32.113Z,94219.66
2022-11-07T00:19:58.691Z,94219.31
2022-11-07T00:22:25.310Z,94215.22
2022-11-07T00:24:51.958Z,94226.41
2022-11-07T00:27:18.780Z,94234.50
2022-11-07T00:29:45.561Z,94225.16
2022-11-07T00:32:12.212Z,94236.78
2022-11-07T00:34:38.886Z,94234.50
2022-11-07T00:37:05.593Z,94245.44
2022-11-07T00:39:32.290Z,94244.53
2022-11-07T00:41:59.273Z,94237.00
2022-11-07T00:44:25.954Z,94238.59
2022-11-07T00:46:52.692Z,94241.78
2022-11-07T00:49:19.432Z,94243.28
2022-11-07T00:51:46.102Z,94246.94
2022-11-07T00:54:12.918Z,94237.81
2022-11-07T00:56:39.560Z,94241.28
2022-11-07T00:59:06.415Z,94225.41
2022-11-07T01:01:33.991Z,94222.09
2022-11-07T01:04:19.774Z,94224.66
2022-11-07T01:06:47.106Z,94221.31
2022-11-07T01:09:18.170Z,94224.31
2022-11-07T01:11:45.251Z,94212.25
2022-11-07T01:14:13.430Z,94215.72
2022-11-07T01:16:41.737Z,94224.16
2022-11-07T01:19:08.808Z,94222.69
2022-11-07T01:21:38.230Z,94228.06
2022-11-07T01:24:06.812Z,94224.09
2022-11-07T01:26:33.504Z,94213.66
2022-11-07T01:29:00.280Z,94222.94
2022-11-07T01:31:26.942Z,94229.66
2022-11-07T01:33:53.662Z,94234.81
2022-11-07T01:36:20.384Z,94237.19
2022-11-07T01:38:48.756Z,94233.19
2022-11-07T01:41:21.721Z,94246.34
2022-11-07T01:43:50.712Z,94249.19
2022-11-07T01:46:18.008Z,94249.53
2022-11-07T01:49:05.464Z,94246.44
2022-11-07T01:51:34.683Z,94252.59
2022-11-07T01:54:01.692Z,94250.22
2022-11-07T01:56:32.061Z,94236.06
2022-11-07T01:58:59.723Z,94237.66
2022-11-07T02:01:26.596Z,94229.91
2022-11-07T02:03:54.042Z,94238.91
2022-11-07T02:06:29.960Z,94243.00
2022-11-07T02:08:56.634Z,94235.56
2022-11-07T02:11:23.820Z,94237.31
2022-11-07T02:13:50.481Z,94236.63
2022-11-07T02:16:17.408Z,94245.66
2022-11-07T02:18:45.489Z,94251.75
2022-11-07T02:21:29.761Z,94253.41
2022-11-07T02:24:08.673Z,94248.13
2022-11-07T02:26:36.722Z,94258.78
2022-11-07T02:29:09.327Z,94261.94
2022-11-07T02:31:36.034Z,94264.44
2022-11-07T02:34:02.698Z,94276.97
2022-11-07T02:36:29.600Z,94270.50
2022-11-07T02:38:58.915Z,94279.81
2022-11-07T02:41:28.027Z,94276.88
2022-11-07T02:44:14.892Z,94274.22
2022-11-07T02:46:41.652Z,94288.13
2022-11-07T02:49:08.514Z,94279.25
2022-11-07T02:51:35.144Z,94280.06
2022-11-07T02:54:01.799Z,94285.50
2022-11-07T02:56:28.500Z,94274.22
2022-11-07T02:58:55.229Z,94275.22
2022-11-07T03:01:22.589Z,94275.13
2022-11-07T03:03:50.573Z,94283.66
2022-11-07T03:06:20.591Z,94286.81
2022-11-07T03:08:47.528Z,94289.59
2022-11-07T03:11:14.472Z,94289.03
2022-11-07T03:13:41.234Z,94288.88
2022-11-07T03:16:09.982Z,94279.38
2022-11-07T03:18:37.002Z,94290.28
2022-11-07T03:21:04.741Z,94281.25
2022-11-07T03:23:32.030Z,94279.56
2022-11-07T03:25:58.722Z,94278.88
2022-11-07T03:28:25.439Z,94276.63
2022-11-07T03:30:52.659Z,94271.03
2022-11-07T03:33:19.593Z,94269.28
2022-11-07T03:35:46.471Z,94270.34
2022-11-07T03:38:13.152Z,94275.41
2022-11-07T03:40:40.230Z,94271.53
2022-11-07T03:43:06.933Z,94280.97
2022-11-07T03:45:33.590Z,94292.16
2022-11-07T03:48:00.312Z,94293.03
2022-11-07T03:50:26.947Z,94294.97
2022-11-07T03:52:53.909Z,94304.91
2022-11-07T03:55:20.556Z,94305.53
2022-11-07T03:57:47.402Z,94306.16
2022-11-07T04:00:15.084Z,94303.09
2022-11-07T04:02:43.021Z,94301.31
2022-11-07T04:05:10.502Z,94306.06
2022-11-07T04:07:37.314Z,94307.94
2022-11-07T04:10:04.395Z,94315.38
2022-11-07T04:12:49.690Z,94316.09
2022-11-07T04:15:35.130Z,94318.22
2022-11-07T04:18:01.932Z,94333.47
2022-11-07T04:20:28.874Z,94333.47
2022-11-07T04:22:55.546Z,94324.63
2022-11-07T04:25:42.183Z,94318.13
2022-11-07T04:28:08.936Z,94329.84
2022-11-07T04:30:35.650Z,94325.66
2022-11-07T04:33:03.154Z,94338.91
2022-11-07T04:35:32.189Z,94330.22
2022-11-07T04:38:00.014Z,94330.69
2022-11-07T04:40:27.823Z,94330.28
2022-11-07T04:42:54.993Z,94331.44
2022-11-07T04:45:21.862Z,94325.66
2022-11-07T04:47:48.833Z,94331.78
2022-11-07T04:50:17.612Z,94337.72
2022-11-07T04:52:45.680Z,94338.81
2022-11-07T04:55:18.934Z,94333.16
2022-11-07T04:57:45.803Z,94328.81
2022-11-07T05:00:13.343Z,94324.97
2022-11-07T05:02:40.192Z,94328.19
2022-11-07T05:05:07.532Z,94326.41
2022-11-07T05:07:35.912Z,94330.75
2022-11-07T05:10:07.213Z,94317.53
2022-11-07T05:12:36.352Z,94325.66
2022-11-07T05:15:03.163Z,94332.41
2022-11-07T05:17:29.857Z,94330.47
2022-11-07T05:19:56.512Z,94324.44
2022-11-07T05:22:41.660Z,94322.75
2022-11-07T05:25:09.036Z,94321.78
2022-11-07T05:27:35.637Z,94329.94
2022-11-07T05:30:02.335Z,94331.94
2022-11-07T05:32:28.915Z,94333.88
2022-11-07T05:34:55.537Z,94332.22
2022-11-07T05:37:22.192Z,94329.47
2022-11-07T05:39:52.443Z,94341.19
2022-11-07T05:42:21.584Z,94340.91
2022-11-07T05:44:48.237Z,94338.50
2022-11-07T05:47:15.069Z,94342.84
2022-11-07T05:49:41.645Z,94351.66
2022-11-07T05:52:08.187Z,94351.47
2022-11-07T05:54:34.760Z,94347.75
2022-11-07T05:57:01.384Z,94350.16
2022-11-07T05:59:28.153Z,94349.59
2022-11-07T06:01:54.885Z,94357.06
2022-11-07T06:04:21.695Z,94351.75
2022-11-07T06:06:48.321Z,94355.66
2022-11-07T06:09:15.098Z,94358.50
2022-11-07T06:11:41.901Z,94361.59
2022-11-07T06:14:08.729Z,94362.16
2022-11-07T06:16:35.353Z,94371.13
2022-11-07T06:19:02.468Z,94367.94
2022-11-07T06:21:29.699Z,94365.34
2022-11-07T06:23:57.368Z,94364.38
2022-11-07T06:26:24.091Z,94367.75
2022-11-07T06:28:50.780Z,94364.38
2022-11-07T06:31:17.564Z,94379.56
2022-11-07T06:33:44.262Z,94375.03
2022-11-07T06:36:12.655Z,94369.47
2022-11-07T06:38:39.923Z,94372.72
2022-11-07T06:41:14.220Z,94381.22
2022-11-07T06:43:41.168Z,94369.22
2022-11-07T06:46:10.881Z,94370.34
2022-11-07T06:48:37.608Z,94380.91
2022-11-07T06:51:06.220Z,94391.69
2022-11-07T06:53:33.501Z,94404.09
2022-11-07T06:56:01.306Z,94424.09
2022-11-07T06:58:28.083Z,94438.25
2022-11-07T07:00:58.783Z,94444.47
2022-11-07T07:03:25.410Z,94429.19
2022-11-07T07:05:52.058Z,94432.75
2022-11-07T07:08:18.649Z,94422.78
2022-11-07T07:10:46.134Z,94405.09
2022-11-07T07:13:13.993Z,94429.16
2022-11-07T07:15:51.297Z,94414.84
2022-11-07T07:18:19.182Z,94416.13
2022-11-07T07:20:46.822Z,94421.22
2022-11-07T07:23:13.465Z,94424.31
2022-11-07T07:25:40.138Z,94429.97
2022-11-07T07:28:06.929Z,94433.50
2022-11-07T07:30:33.575Z,94435.63
2022-11-07T07:33:00.193Z,94434.03
2022-11-07T07:35:26.961Z,94429.75
2022-11-07T07:37:53.800Z,94451.25
2022-11-07T07:40:20.953Z,94454.25
2022-11-07T07:42:47.721Z,94464.97
2022-11-07T07:45:15.613Z,94463.53
2022-11-07T07:47:42.631Z,94452.84
2022-11-07T07:50:11.577Z,94466.59
2022-11-07T07:52:38.393Z,94468.00
2022-11-07T07:55:08.002Z,94472.69
2022-11-07T07:57:47.438Z,94481.91
2022-11-07T08:00:14.622Z,94485.69
2022-11-07T08:02:44.180Z,94472.47
2022-11-07T08:05:14.991Z,94473.44
2022-11-07T08:07:49.020Z,94468.72
2022-11-07T08:10:40.226Z,94455.00
2022-11-07T08:13:03.712Z,94451.94
2022-11-07T08:15:30.382Z,94452.88
2022-11-07T08:18:01.566Z,94468.00
2022-11-07T08:20:28.370Z,94464.34
2022-11-07T08:23:11.053Z,94451.81
2022-11-07T08:25:41.855Z,94459.94
2022-11-07T08:28:08.815Z,94474.00
2022-11-07T08:30:35.951Z,94472.44
2022-11-07T08:33:05.952Z,94475.88
2022-11-07T08:35:34.014Z,94472.88
2022-11-07T08:38:03.790Z,94478.84
2022-11-07T08:40:30.583Z,94488.22
2022-11-07T08:43:00.830Z,94485.31
2022-11-07T08:45:27.811Z,94467.25
2022-11-07T08:47:58.852Z,94485.00
2022-11-07T08:50:26.682Z,94483.34
2022-11-07T08:52:55.905Z,94485.75
2022-11-07T08:55:26.447Z,94477.50
2022-11-07T08:57:58.305Z,94488.06
2022-11-07T09:00:25.202Z,94469.72
2022-11-07T09:05:39.571Z,94470.78
2022-11-07T09:08:06.721Z,94480.28
2022-11-07T09:10:33.570Z,94489.34
2022-11-07T09:13:00.390Z,94483.03
2022-11-07T09:15:27.241Z,94492.00
2022-11-07T09:17:53.931Z,94495.78
2022-11-07T09:20:20.775Z,94499.41
2022-11-07T09:22:47.530Z,94500.09
2022-11-07T09:25:14.328Z,94497.63
2022-11-07T09:27:40.987Z,94498.66
2022-11-07T09:30:08.412Z,94489.38
2022-11-07T09:32:49.793Z,94499.69
2022-11-07T09:35:16.630Z,94495.78
2022-11-07T09:37:43.551Z,94504.53
2022-11-07T09:40:28.939Z,94499.59
2022-11-07T09:43:12.002Z,94498.72
2022-11-07T09:45:49.852Z,94501.91
2022-11-07T09:48:20.331Z,94493.53
2022-11-07T09:50:49.400Z,94507.44
2022-11-07T09:53:26.841Z,94509.59
2022-11-07T09:55:57.813Z,94500.47
2022-11-07T09:58:43.332Z,94505.94
2022-11-07T10:01:16.669Z,94495.25
2022-11-07T10:04:17.676Z,94488.31
2022-11-07T10:06:33.512Z,94495.72
2022-11-07T10:09:15.751Z,94481.66
2022-11-07T10:12:16.403Z,94486.50
2022-11-07T10:15:15.825Z,94477.13
2022-11-07T10:18:07.828Z,94469.00
2022-11-07T10:21:23.070Z,94461.84
2022-11-07T10:24:08.099Z,94461.66
2022-11-07T10:26:36.049Z,94462.97
2022-11-07T10:29:16.141Z,94458.41
2022-11-07T10:31:55.504Z,94434.25
2022-11-07T10:35:07.021Z,94436.38
2022-11-07T10:37:33.749Z,94435.72
2022-11-07T10:40:00.502Z,94429.06
2022-11-07T10:42:30.161Z,94432.59
2022-11-07T10:44:57.023Z,94427.75
2022-11-07T10:47:26.263Z,94416.53
2022-11-07T10:50:01.853Z,94423.94
2022-11-07T10:52:29.522Z,94421.75
2022-11-07T10:55:15.141Z,94424.47
2022-11-07T10:57:42.961Z,94424.72
2022-11-07T11:00:27.779Z,94428.13
2022-11-07T11:02:56.384Z,94424.97
2022-11-07T11:05:41.080Z,94410.25
2022-11-07T11:08:18.775Z,94420.56
2022-11-07T11:10:46.249Z,94415.72
2022-11-07T11:13:32.991Z,94410.22
2022-11-07T11:16:18.089Z,94408.03
2022-11-07T11:18:52.438Z,94400.41
2022-11-07T11:21:19.430Z,94403.72
2022-11-07T11:23:46.889Z,94406.00
2022-11-07T11:26:26.020Z,94406.72
2022-11-07T11:28:57.702Z,94396.25
2022-11-07T11:31:33.551Z,94391.44
2022-11-07T11:34:26.671Z,94390.75
2022-11-07T11:37:18.139Z,94371.44
2022-11-07T11:39:49.589Z,94382.63
2022-11-07T11:42:50.316Z,94388.72
2022-11-07T11:45:22.329Z,94379.91
2022-11-07T11:48:01.286Z,94382.31
2022-11-07T11:50:34.854Z,94373.53
2022-11-07T11:53:01.742Z,94372.34
2022-11-07T11:55:36.302Z,94374.41
2022-11-07T11:58:32.434Z,94359.53
2022-11-07T12:01:55.547Z,94370.59
2022-11-07T12:04:34.128Z,94367.00
2022-11-07T12:07:21.631Z,94366.91
2022-11-07T12:10:01.482Z,94355.47
2022-11-07T12:12:31.790Z,94356.13
2022-11-07T12:15:21.825Z,94364.19
2022-11-07T12:18:13.225Z,94354.47
2022-11-07T12:21:02.616Z,94357.44
2022-11-07T12:23:52.592Z,94351.81
2022-11-07T12:26:26.901Z,94344.13
2022-11-07T12:29:07.310Z,94345.13
2022-11-07T12:31:33.999Z,94333.25
2022-11-07T12:34:48.231Z,94339.41
2022-11-07T12:37:31.780Z,94336.25
2022-11-07T12:39:58.560Z,94328.75
2022-11-07T12:42:34.889Z,94330.56
2022-11-07T12:45:13.160Z,94330.72
2022-11-07T12:47:48.972Z,94327.00
2022-11-07T12:50:23.041Z,94322.06
2022-11-07T12:53:22.718Z,94323.06
2022-11-07T12:56:03.512Z,94317.38
2022-11-07T12:58:33.374Z,94321.41
2022-11-07T13:01:00.596Z,94319.44
2022-11-07T13:03:42.391Z,94312.81
2022-11-07T13:06:48.041Z,94316.34
2022-11-07T13:09:28.639Z,94310.81
2022-11-07T13:12:10.652Z,94311.66
2022-11-07T13:14:42.091Z,94305.38
2022-11-07T13:17:08.740Z,94312.44
2022-11-07T13:19:37.645Z,94307.91
2022-11-07T13:22:05.904Z,94313.88
2022-11-07T13:24:37.227Z,94311.81
2022-11-07T13:27:15.742Z,94304.41
2022-11-07T13:29:44.939Z,94308.47
2022-11-07T13:32:14.052Z,94314.22
2022-11-07T13:34:56.449Z,94308.38
2022-11-07T13:37:32.639Z,94309.63
2022-11-07T13:40:26.708Z,94304.41
2022-11-07T13:43:22.281Z,94302.19
2022-11-07T13:45:52.528Z,94302.03
2022-11-07T13:48:22.309Z,94303.13
2022-11-07T13:51:21.051Z,94297.13
2022-11-07T13:53:56.200Z,94299.78
2022-11-07T13:56:42.452Z,94295.91
2022-11-07T13:59:43.018Z,94303.84
2022-11-07T14:02:55.565Z,94302.25
2022-11-07T14:05:35.236Z,94305.91
2022-11-07T14:08:07.569Z,94294.56
2022-11-07T14:10:48.469Z,94287.69
2022-11-07T14:13:40.625Z,94286.16
2022-11-07T14:16:17.780Z,94294.56
2022-11-07T14:18:50.237Z,94285.00
2022-11-07T14:21:35.585Z,94279.09
2022-11-07T14:24:02.821Z,94279.13
2022-11-07T14:26:33.022Z,94280.00
2022-11-07T14:29:03.800Z,94286.63
2022-11-07T14:31:35.490Z,94286.19
2022-11-07T14:34:12.951Z,94275.53
2022-11-07T14:36:49.459Z,94268.75
2022-11-07T14:39:16.637Z,94271.47
2022-11-07T14:41:44.703Z,94270.78
2022-11-07T14:44:22.910Z,94269.19
2022-11-07T14:46:53.150Z,94273.06
2022-11-07T14:49:26.669Z,94267.59
2022-11-07T14:51:54.458Z,94269.50
2022-11-07T14:54:22.970Z,94265.88
2022-11-07T14:56:53.420Z,94269.59
2022-11-07T14:59:20.648Z,94275.28
2022-11-07T15:01:57.182Z,94271.38
2022-11-07T15:04:29.688Z,94278.66
2022-11-07T15:06:56.899Z,94270.19
2022-11-07T15:09:36.218Z,94275.25
2022-11-07T15:12:08.202Z,94273.00
2022-11-07T15:14:36.122Z,94276.53
2022-11-07T15:17:06.133Z,94270.44
2022-11-07T15:19:34.480Z,94266.03
2022-11-07T15:22:03.407Z,94275.53
2022-11-07T15:24:38.676Z,94269.19
2022-11-07T15:27:18.949Z,94262.91
2022-11-07T15:29:57.614Z,94266.03
2022-11-07T15:32:27.248Z,94277.25
2022-11-07T15:35:23.133Z,94278.78
2022-11-07T15:38:00.745Z,94276.19
2022-11-07T15:40:29.211Z,94272.63
2022-11-07T15:42:56.071Z,94270.25
2022-11-07T15:45:23.149Z,94267.66
2022-11-07T15:47:49.960Z,94255.63
2022-11-07T15:50:21.892Z,94255.53
2022-11-07T15:52:49.510Z,94262.19
2022-11-07T15:55:19.210Z,94269.78
2022-11-07T15:57:47.801Z,94260.34
2022-11-07T16:00:20.471Z,94258.13
2022-11-07T16:02:47.643Z,94256.16
2022-11-07T16:05:15.188Z,94265.66
2022-11-07T16:07:43.170Z,94257.09
2022-11-07T16:10:27.115Z,94258.31
2022-11-07T16:12:54.276Z,94269.75
2022-11-07T16:15:23.993Z,94272.84
2022-11-07T16:17:51.128Z,94274.38
2022-11-07T16:20:23.224Z,94284.81
2022-11-07T16:22:50.720Z,94282.38
2022-11-07T16:25:22.195Z,94276.97
2022-11-07T16:27:59.171Z,94283.75
2022-11-07T16:30:27.093Z,94278.56
2022-11-07T16:32:53.996Z,94283.00
2022-11-07T16:35:21.551Z,94284.22
2022-11-07T16:37:48.538Z,94286.59
2022-11-07T16:40:18.300Z,94292.09
2022-11-07T16:42:45.632Z,94285.09
2022-11-07T16:45:17.375Z,94292.38
2022-11-07T16:47:44.281Z,94306.41
2022-11-07T16:50:16.281Z,94302.66
2022-11-07T16:52:43.188Z,94306.25
2022-11-07T16:55:17.658Z,94311.44
2022-11-07T16:57:44.937Z,94308.25
2022-11-07T17:00:24.390Z,94306.25
2022-11-07T17:02:51.373Z,94305.44
2022-11-07T17:05:18.302Z,94307.88
2022-11-07T17:07:45.016Z,94305.47
2022-11-07T17:10:16.691Z,94307.47
2022-11-07T17:12:43.525Z,94318.00
2022-11-07T17:15:10.777Z,94315.81
2022-11-07T17:17:37.621Z,94315.59
2022-11-07T17:20:05.690Z,94325.97
2022-11-07T17:22:32.431Z,94326.16
2022-11-07T17:24:59.082Z,94323.56
2022-11-07T17:27:26.609Z,94330.91
2022-11-07T17:29:53.956Z,94326.94
2022-11-07T17:32:20.938Z,94323.97
2022-11-07T17:34:59.179Z,94323.75
2022-11-07T17:37:31.406Z,94327.75
2022-11-07T17:39:58.000Z,94333.69
2022-11-07T17:42:24.779Z,94336.66
2022-11-07T17:44:51.566Z,94334.06
2022-11-07T17:47:29.408Z,94330.78
2022-11-07T17:49:57.078Z,94338.34
2022-11-07T17:52:24.303Z,94340.75
2022-11-07T17:54:51.039Z,94351.25
2022-11-07T17:57:17.982Z,94344.00
2022-11-07T17:59:46.055Z,94354.56
2022-11-07T18:02:17.352Z,94347.41
2022-11-07T18:04:44.686Z,94347.59
2022-11-07T18:07:12.961Z,94347.69
2022-11-07T18:09:43.292Z,94344.50
2022-11-07T18:12:10.837Z,94339.25
2022-11-07T18:14:38.350Z,94345.00
2022-11-07T18:17:05.947Z,94343.03
2022-11-07T18:19:32.753Z,94349.41
2022-11-07T18:21:59.723Z,94345.28
2022-11-07T18:24:26.547Z,94338.66
2022-11-07T18:26:53.349Z,94345.25
2022-11-07T18:29:20.280Z,94340.63
2022-11-07T18:31:51.894Z,94349.34
2022-11-07T18:34:20.661Z,94346.41
2022-11-07T18:36:47.430Z,94341.56
2022-11-07T18:39:21.760Z,94347.16
2022-11-07T18:41:49.470Z,94342.31
2022-11-07T18:44:16.917Z,94340.31
2022-11-07T18:46:44.145Z,94343.38
2022-11-07T18:49:12.330Z,94356.22
2022-11-07T18:51:39.081Z,94357.75
2022-11-07T18:54:06.978Z,94357.03
2022-11-07T18:56:33.881Z,94361.97
2022-11-07T18:59:00.922Z,94360.19
2022-11-07T19:01:31.137Z,94368.25
2022-11-07T19:04:00.134Z,94366.75
2022-11-07T19:06:28.768Z,94373.22
2022-11-07T19:08:55.749Z,94369.25
2022-11-07T19:11:26.609Z,94370.41
2022-11-07T19:13:53.718Z,94374.38
2022-11-07T19:16:22.174Z,94383.31
2022-11-07T19:18:50.105Z,94380.75
2022-11-07T19:21:20.482Z,94385.03
2022-11-07T19:23:48.455Z,94386.94
2022-11-07T19:26:15.201Z,94386.88
2022-11-07T19:28:42.021Z,94392.81
2022-11-07T19:31:12.894Z,94395.25
2022-11-07T19:33:43.418Z,94387.13
2022-11-07T19:36:15.880Z,94391.38
2022-11-07T19:38:43.334Z,94401.34
2022-11-07T19:41:10.811Z,94396.44
2022-11-07T19:43:38.294Z,94400.00
2022-11-07T19:46:11.035Z,94399.59
2022-11-07T19:48:37.778Z,94392.13
2022-11-07T19:51:08.711Z,94392.03
2022-11-07T19:53:36.209Z,94402.22
2022-11-07T19:56:11.473Z,94396.53
2022-11-07T19:58:39.932Z,94395.69
2022-11-07T20:01:22.071Z,94408.22
2022-11-07T20:03:51.163Z,94397.63
2022-11-07T20:06:21.839Z,94398.69
2022-11-07T20:08:48.680Z,94403.66
2022-11-07T20:11:17.261Z,94400.88
2022-11-07T20:13:46.696Z,94398.78
2022-11-07T20:16:13.626Z,94414.34
2022-11-07T20:18:41.502Z,94417.38
2022-11-07T20:21:13.070Z,94410.34
2022-11-07T20:23:40.671Z,94423.31
2022-11-07T20:26:08.571Z,94418.16
2022-11-07T20:28:35.950Z,94425.00
2022-11-07T20:31:08.202Z,94415.06
2022-11-07T20:33:34.954Z,94419.59
2022-11-07T20:36:04.827Z,94432.38
2022-11-07T20:38:32.258Z,94435.31
2022-11-07T20:40:58.944Z,94430.16
2022-11-07T20:43:26.042Z,94439.47
2022-11-07T20:45:52.857Z,94442.41
2022-11-07T20:48:20.178Z,94432.09
2022-11-07T20:50:47.524Z,94428.09
2022-11-07T20:53:15.110Z,94434.41
2022-11-07T20:55:43.658Z,94432.38
2022-11-07T20:58:12.388Z,94424.72
2022-11-07T21:00:41.447Z,94436.09
2022-11-07T21:03:13.364Z,94431.38
2022-11-07T21:05:40.029Z,94438.19
2022-11-07T21:08:09.256Z,94433.03
2022-11-07T21:10:36.221Z,94428.91
2022-11-07T21:13:03.131Z,94422.06
2022-11-07T21:15:29.851Z,94421.44
2022-11-07T21:17:56.490Z,94424.63
2022-11-07T21:20:23.444Z,94429.69
2022-11-07T21:22:50.858Z,94426.91
2022-11-07T21:25:17.720Z,94421.88
2022-11-07T21:27:44.338Z,94425.13
2022-11-07T21:30:11.436Z,94430.56
2022-11-07T21:32:38.407Z,94437.97
2022-11-07T21:35:05.563Z,94433.13
2022-11-07T21:37:32.150Z,94429.72
2022-11-07T21:39:59.718Z,94421.56
2022-11-07T21:42:26.297Z,94430.34
2022-11-07T21:44:53.046Z,94422.34
2022-11-07T21:47:19.735Z,94424.88
2022-11-07T21:49:48.665Z,94432.06
2022-11-07T21:52:17.392Z,94429.31
2022-11-07T21:54:47.039Z,94432.59
2022-11-07T21:57:13.710Z,94432.44
2022-11-07T21:59:40.279Z,94434.72
2022-11-07T22:02:07.047Z,94426.66
2022-11-07T22:04:33.723Z,94431.63
2022-11-07T22:07:01.217Z,94435.06
2022-11-07T22:09:27.936Z,94429.22
2022-11-07T22:11:54.494Z,94427.69
2022-11-07T22:14:22.370Z,94419.97
2022-11-07T22:16:50.362Z,94427.41
2022-11-07T22:19:18.045Z,94436.44
2022-11-07T22:21:44.788Z,94431.94
2022-11-07T22:24:11.580Z,94436.78
2022-11-07T22:26:38.248Z,94436.16
2022-11-07T22:29:04.871Z,94432.16
2022-11-07T22:31:32.086Z,94430.25
2022-11-07T22:33:59.977Z,94425.75
2022-11-07T22:36:26.758Z,94421.63
2022-11-07T22:38:57.411Z,94424.22
2022-11-07T22:41:25.419Z,94428.22
2022-11-07T22:43:52.309Z,94424.22
2022-11-07T22:46:23.527Z,94420.97
2022-11-07T22:48:50.674Z,94408.09
2022-11-07T22:51:22.592Z,94411.72
2022-11-07T22:53:55.980Z,94411.47
2022-11-07T22:56:22.870Z,94404.59
2022-11-07T22:58:49.498Z,94408.72
2022-11-07T23:01:18.893Z,94414.66
2022-11-07T23:03:46.257Z,94418.38
2022-11-07T23:06:12.960Z,94412.03
2022-11-07T23:08:39.627Z,94412.38
2022-11-07T23:14:00.594Z,94400.56
2022-11-07T23:16:32.533Z,94402.25
2022-11-07T23:19:01.445Z,94409.59
2022-11-07T23:21:28.368Z,94411.88
2022-11-07T23:23:56.901Z,94403.50
2022-11-07T23:26:24.202Z,94407.13
2022-11-07T23:28:50.863Z,94407.75
2022-11-07T23:31:18.389Z,94410.09
2022-11-07T23:33:45.121Z,94405.00
2022-11-07T23:36:14.320Z,94410.38
2022-11-07T23:38:41.823Z,94404.22
2022-11-07T23:41:11.197Z,94399.09
2022-11-07T23:43:37.863Z,94403.69
2022-11-07T23:46:23.308Z,94407.38
2022-11-07T23:49:14.225Z,94403.06
2022-11-07T23:51:41.288Z,94400.00
2022-11-07T23:54:26.314Z,94399.03
2022-11-07T23:56:52.937Z,94394.56
2022-11-07T23:59:38.151Z,94389.69
